DRK4000 VQPR-VNKT
Flight info
| Callsign | DRK4000 |
|---|---|
| Flight time | N/A |
| Altitude | 36000 |
| Route | PRO G348 KIMTI KMTI1G |
| Aircraft | A319/M-SDE3FGHIRWY/LB1 |
Departure
| Time | 2026-05-05 11:50 |
|---|---|
| Airport | Paro International Airport (VQPR) |
Arrival
| Time | N/A |
|---|---|
| Airport | Tribhuvan International Airport (VNKT) |
| Time | Latitude | Longitude | Altitude | Speed | Heading |
|---|---|---|---|---|---|
| 2026-05-05 11:34 | 27.40630 | 89.42104 | 7328 ft | 0 kts | 240° |
| 2026-05-05 11:44 | 27.40631 | 89.42104 | 7329 ft | 1 kts | 240° |
| 2026-05-05 11:44 | 27.40641 | 89.42126 | 7326 ft | 4 kts | 253° |
| 2026-05-05 11:45 | 27.40643 | 89.42155 | 7329 ft | 4 kts | 289° |
| 2026-05-05 11:45 | 27.40634 | 89.42171 | 7331 ft | 1 kts | 327° |
| 2026-05-05 11:45 | 27.40631 | 89.42173 | 7331 ft | 1 kts | 327° |
| 2026-05-05 11:47 | 27.40653 | 89.42157 | 7331 ft | 11 kts | 327° |
| 2026-05-05 11:47 | 27.40763 | 89.42083 | 7331 ft | 21 kts | 329° |
| 2026-05-05 11:47 | 27.40830 | 89.42091 | 7337 ft | 5 kts | 58° |
| 2026-05-05 11:48 | 27.40890 | 89.42107 | 7341 ft | 18 kts | 338° |
| 2026-05-05 11:48 | 27.41036 | 89.42017 | 7343 ft | 25 kts | 331° |
| 2026-05-05 11:48 | 27.41160 | 89.41936 | 7344 ft | 12 kts | 325° |
| 2026-05-05 11:49 | 27.41202 | 89.41923 | 7344 ft | 7 kts | 86° |
| 2026-05-05 11:49 | 27.41160 | 89.41944 | 7344 ft | 8 kts | 165° |
| 2026-05-05 11:49 | 27.41021 | 89.42032 | 7343 ft | 54 kts | 150° |
| 2026-05-05 11:49 | 27.40485 | 89.42369 | 7333 ft | 120 kts | 150° |
| 2026-05-05 11:50 | 27.39629 | 89.42932 | 7512 ft | 151 kts | 149° |
| 2026-05-05 11:50 | 27.38726 | 89.43525 | 8170 ft | 151 kts | 152° |
| 2026-05-05 11:50 | 27.37808 | 89.44103 | 8732 ft | 153 kts | 152° |
| 2026-05-05 11:50 | 27.36855 | 89.44743 | 8917 ft | 169 kts | 148° |
| 2026-05-05 11:51 | 27.35841 | 89.45566 | 9089 ft | 189 kts | 145° |
| 2026-05-05 11:51 | 27.34735 | 89.46496 | 9249 ft | 207 kts | 144° |
| 2026-05-05 11:51 | 27.33547 | 89.47490 | 9502 ft | 216 kts | 147° |
| 2026-05-05 11:51 | 27.32151 | 89.47928 | 10066 ft | 201 kts | 185° |
| 2026-05-05 11:52 | 27.31002 | 89.47439 | 11027 ft | 161 kts | 217° |
| 2026-05-05 11:52 | 27.30288 | 89.46492 | 11354 ft | 163 kts | 248° |
| 2026-05-05 11:52 | 27.30111 | 89.45222 | 11582 ft | 167 kts | 272° |
| 2026-05-05 11:52 | 27.30144 | 89.43946 | 12056 ft | 158 kts | 269° |
| 2026-05-05 11:53 | 27.30165 | 89.42719 | 12472 ft | 158 kts | 269° |
| 2026-05-05 11:53 | 27.30183 | 89.41495 | 12828 ft | 156 kts | 268° |
| 2026-05-05 11:53 | 27.30201 | 89.40271 | 13194 ft | 160 kts | 269° |
| 2026-05-05 11:53 | 27.30218 | 89.38955 | 13361 ft | 178 kts | 269° |
| 2026-05-05 11:54 | 27.30237 | 89.37489 | 13515 ft | 196 kts | 269° |
| 2026-05-05 11:54 | 27.30261 | 89.35887 | 13644 ft | 215 kts | 269° |
| 2026-05-05 11:54 | 27.30286 | 89.34161 | 13776 ft | 234 kts | 269° |
| 2026-05-05 11:54 | 27.30313 | 89.32219 | 13900 ft | 260 kts | 270° |
| 2026-05-05 11:55 | 27.30343 | 89.30094 | 14100 ft | 284 kts | 270° |
| 2026-05-05 11:55 | 27.30375 | 89.27778 | 14293 ft | 308 kts | 270° |
| 2026-05-05 11:55 | 27.30409 | 89.25286 | 14467 ft | 331 kts | 270° |
| 2026-05-05 11:55 | 27.30445 | 89.22635 | 14813 ft | 345 kts | 270° |
| 2026-05-05 11:56 | 27.30483 | 89.19936 | 15474 ft | 347 kts | 270° |
| 2026-05-05 11:56 | 27.30520 | 89.17227 | 16189 ft | 345 kts | 270° |
| 2026-05-05 11:56 | 27.30556 | 89.14504 | 16833 ft | 350 kts | 270° |
| 2026-05-05 11:56 | 27.30591 | 89.11756 | 17505 ft | 352 kts | 270° |
| 2026-05-05 11:57 | 27.30624 | 89.09000 | 18179 ft | 354 kts | 270° |
| 2026-05-05 11:57 | 27.30654 | 89.06262 | 18772 ft | 356 kts | 270° |
| 2026-05-05 11:57 | 27.30685 | 89.03474 | 19316 ft | 358 kts | 270° |
| 2026-05-05 11:57 | 27.30718 | 89.00661 | 19886 ft | 361 kts | 269° |
| 2026-05-05 11:58 | 27.30753 | 88.97827 | 20377 ft | 364 kts | 269° |
| 2026-05-05 11:58 | 27.30788 | 88.94976 | 20921 ft | 366 kts | 269° |
| 2026-05-05 11:58 | 27.30818 | 88.92111 | 21472 ft | 367 kts | 269° |
| 2026-05-05 11:58 | 27.30844 | 88.89230 | 22017 ft | 370 kts | 269° |
| 2026-05-05 11:59 | 27.30871 | 88.86330 | 22553 ft | 372 kts | 269° |
| 2026-05-05 11:59 | 27.30901 | 88.83405 | 23048 ft | 376 kts | 269° |
| 2026-05-05 11:59 | 27.30932 | 88.80456 | 23555 ft | 379 kts | 268° |
| 2026-05-05 11:59 | 27.30963 | 88.77484 | 23980 ft | 381 kts | 268° |
| 2026-05-05 12:00 | 27.30994 | 88.74499 | 24421 ft | 383 kts | 268° |
| 2026-05-05 12:00 | 27.31024 | 88.71495 | 24867 ft | 385 kts | 268° |
| 2026-05-05 12:00 | 27.31054 | 88.68484 | 25292 ft | 386 kts | 268° |
| 2026-05-05 12:00 | 27.31082 | 88.65461 | 25752 ft | 387 kts | 268° |
| 2026-05-05 12:01 | 27.31109 | 88.62428 | 26193 ft | 388 kts | 268° |
| 2026-05-05 12:01 | 27.31127 | 88.60410 | 26463 ft | 389 kts | 268° |
| 2026-05-05 12:01 | 27.31157 | 88.57356 | 26744 ft | 394 kts | 269° |
| 2026-05-05 12:01 | 27.31184 | 88.54242 | 26865 ft | 402 kts | 268° |
| 2026-05-05 12:02 | 27.31206 | 88.51106 | 27393 ft | 399 kts | 268° |
| 2026-05-05 12:02 | 27.31229 | 88.48001 | 27940 ft | 397 kts | 268° |
| 2026-05-05 12:02 | 27.31252 | 88.44902 | 28406 ft | 397 kts | 268° |
| 2026-05-05 12:02 | 27.31273 | 88.41790 | 28793 ft | 398 kts | 268° |
| 2026-05-05 12:03 | 27.31294 | 88.38664 | 29061 ft | 402 kts | 268° |
| 2026-05-05 12:03 | 27.31319 | 88.35522 | 29493 ft | 403 kts | 268° |
| 2026-05-05 12:03 | 27.31346 | 88.32368 | 29917 ft | 404 kts | 268° |
| 2026-05-05 12:03 | 27.31370 | 88.29205 | 30329 ft | 405 kts | 268° |
| 2026-05-05 12:04 | 27.31388 | 88.26026 | 30663 ft | 407 kts | 268° |
| 2026-05-05 12:04 | 27.31403 | 88.22835 | 30939 ft | 409 kts | 268° |
| 2026-05-05 12:04 | 27.31418 | 88.19624 | 31190 ft | 411 kts | 268° |
| 2026-05-05 12:04 | 27.31435 | 88.16402 | 31458 ft | 413 kts | 268° |
| 2026-05-05 12:05 | 27.31452 | 88.13168 | 31735 ft | 415 kts | 268° |
| 2026-05-05 12:05 | 27.31468 | 88.09925 | 32126 ft | 414 kts | 268° |
| 2026-05-05 12:05 | 27.31485 | 88.06689 | 32488 ft | 415 kts | 268° |
| 2026-05-05 12:05 | 27.31499 | 88.03436 | 32698 ft | 417 kts | 268° |
| 2026-05-05 12:06 | 27.31514 | 88.00220 | 33006 ft | 417 kts | 268° |
| 2026-05-05 12:06 | 27.31530 | 87.96965 | 33368 ft | 416 kts | 268° |
| 2026-05-05 12:06 | 27.31545 | 87.93707 | 33743 ft | 416 kts | 267° |
| 2026-05-05 12:06 | 27.31557 | 87.90451 | 34132 ft | 415 kts | 267° |
| 2026-05-05 12:07 | 27.31569 | 87.87209 | 34482 ft | 414 kts | 267° |
| 2026-05-05 12:07 | 27.31583 | 87.83977 | 34834 ft | 412 kts | 267° |
| 2026-05-05 12:07 | 27.31595 | 87.80763 | 35223 ft | 410 kts | 268° |
| 2026-05-05 12:07 | 27.31605 | 87.77566 | 35544 ft | 409 kts | 267° |
| 2026-05-05 12:08 | 27.31611 | 87.74376 | 35853 ft | 408 kts | 267° |
| 2026-05-05 12:08 | 27.31617 | 87.71188 | 36035 ft | 407 kts | 267° |
| 2026-05-05 12:08 | 27.31629 | 87.64894 | 36053 ft | 399 kts | 267° |
| 2026-05-05 12:09 | 27.31647 | 87.58665 | 36053 ft | 398 kts | 267° |
| 2026-05-05 12:09 | 27.31656 | 87.52439 | 36029 ft | 398 kts | 267° |
| 2026-05-05 12:10 | 27.31656 | 87.46209 | 36037 ft | 399 kts | 267° |
| 2026-05-05 12:10 | 27.31659 | 87.39998 | 36020 ft | 397 kts | 267° |
| 2026-05-05 12:11 | 27.31661 | 87.33832 | 36019 ft | 397 kts | 267° |
| 2026-05-05 12:11 | 27.31659 | 87.27632 | 36032 ft | 397 kts | 267° |
| 2026-05-05 12:12 | 27.31649 | 87.21433 | 36026 ft | 397 kts | 268° |
| 2026-05-05 12:12 | 27.32482 | 87.15273 | 36018 ft | 401 kts | 278° |
| 2026-05-05 12:13 | 27.33696 | 87.09163 | 36063 ft | 400 kts | 278° |
| 2026-05-05 12:13 | 27.34899 | 87.03033 | 36080 ft | 402 kts | 278° |
| 2026-05-05 12:14 | 27.36100 | 86.96890 | 36078 ft | 402 kts | 278° |
| 2026-05-05 12:14 | 27.37306 | 86.90760 | 36080 ft | 401 kts | 279° |
| 2026-05-05 12:15 | 27.38507 | 86.84623 | 36075 ft | 400 kts | 279° |
| 2026-05-05 12:15 | 27.39698 | 86.78496 | 36078 ft | 401 kts | 278° |
| 2026-05-05 12:16 | 27.40892 | 86.72364 | 36079 ft | 401 kts | 278° |
| 2026-05-05 12:16 | 27.42082 | 86.66243 | 36066 ft | 398 kts | 279° |
| 2026-05-05 12:17 | 27.43262 | 86.60164 | 36044 ft | 402 kts | 279° |
| 2026-05-05 12:17 | 27.44447 | 86.54003 | 36103 ft | 404 kts | 279° |
| 2026-05-05 12:18 | 27.45638 | 86.47803 | 36066 ft | 406 kts | 278° |
| 2026-05-05 12:18 | 27.46831 | 86.41583 | 36068 ft | 407 kts | 278° |
| 2026-05-05 12:19 | 27.48031 | 86.35342 | 36069 ft | 411 kts | 278° |
| 2026-05-05 12:19 | 27.49251 | 86.28942 | 36058 ft | 424 kts | 278° |
| 2026-05-05 12:20 | 27.49666 | 86.22329 | 36061 ft | 429 kts | 257° |
| 2026-05-05 12:20 | 27.48603 | 86.19185 | 36058 ft | 435 kts | 240° |
| 2026-05-05 12:20 | 27.46706 | 86.16498 | 36032 ft | 444 kts | 228° |
| 2026-05-05 12:21 | 27.44561 | 86.14023 | 36521 ft | 437 kts | 228° |
| 2026-05-05 12:21 | 27.42458 | 86.11608 | 37175 ft | 426 kts | 228° |
| 2026-05-05 12:21 | 27.40402 | 86.09254 | 37754 ft | 416 kts | 228° |
| 2026-05-05 12:21 | 27.38395 | 86.06964 | 38393 ft | 406 kts | 228° |
| 2026-05-05 12:22 | 27.36434 | 86.04735 | 38972 ft | 395 kts | 229° |
| 2026-05-05 12:22 | 27.34521 | 86.02572 | 39508 ft | 384 kts | 228° |
| 2026-05-05 12:22 | 27.32662 | 86.00479 | 40063 ft | 373 kts | 228° |
| 2026-05-05 12:22 | 27.30853 | 85.98450 | 40601 ft | 361 kts | 229° |
| 2026-05-05 12:23 | 27.29104 | 85.96494 | 41116 ft | 349 kts | 229° |
| 2026-05-05 12:23 | 27.27422 | 85.94616 | 41575 ft | 332 kts | 229° |
| 2026-05-05 12:23 | 27.25810 | 85.92828 | 42096 ft | 319 kts | 229° |
| 2026-05-05 12:23 | 27.24274 | 85.91142 | 42466 ft | 309 kts | 229° |
| 2026-05-05 12:24 | 27.21169 | 85.87744 | 42124 ft | 319 kts | 229° |
| 2026-05-05 12:24 | 27.19567 | 85.85984 | 41943 ft | 323 kts | 229° |
| 2026-05-05 12:24 | 27.17968 | 85.84230 | 42090 ft | 317 kts | 229° |
| 2026-05-05 12:25 | 27.16410 | 85.82528 | 42285 ft | 310 kts | 229° |
| 2026-05-05 12:25 | 27.14865 | 85.80845 | 42239 ft | 311 kts | 229° |
| 2026-05-05 12:25 | 27.13297 | 85.79132 | 41991 ft | 318 kts | 229° |
| 2026-05-05 12:25 | 27.11699 | 85.77386 | 41867 ft | 321 kts | 229° |
| 2026-05-05 12:26 | 27.10105 | 85.75646 | 41992 ft | 316 kts | 229° |
| 2026-05-05 12:26 | 27.08542 | 85.73947 | 42166 ft | 311 kts | 229° |
| 2026-05-05 12:26 | 27.05410 | 85.70547 | 41952 ft | 317 kts | 229° |
| 2026-05-05 12:27 | 27.03820 | 85.68818 | 41832 ft | 319 kts | 229° |
| 2026-05-05 12:27 | 27.02230 | 85.67092 | 41923 ft | 316 kts | 229° |
| 2026-05-05 12:27 | 27.00659 | 85.65392 | 42065 ft | 312 kts | 229° |
| 2026-05-05 12:27 | 26.99094 | 85.63701 | 42062 ft | 312 kts | 229° |
| 2026-05-05 12:28 | 26.97519 | 85.62000 | 41918 ft | 316 kts | 228° |
| 2026-05-05 12:28 | 26.95931 | 85.60283 | 41844 ft | 318 kts | 228° |
| 2026-05-05 12:28 | 26.92768 | 85.56874 | 42008 ft | 312 kts | 228° |
| 2026-05-05 12:29 | 26.89624 | 85.53497 | 41883 ft | 315 kts | 228° |
| 2026-05-05 12:29 | 26.86445 | 85.50082 | 41854 ft | 315 kts | 228° |
| 2026-05-05 12:30 | 26.83299 | 85.46716 | 41956 ft | 312 kts | 228° |
| 2026-05-05 12:30 | 26.80136 | 85.43337 | 41799 ft | 316 kts | 228° |
| 2026-05-05 12:31 | 26.76979 | 85.39971 | 41807 ft | 315 kts | 228° |
| 2026-05-05 12:31 | 26.73806 | 85.36595 | 41769 ft | 315 kts | 228° |
| 2026-05-05 12:32 | 26.70615 | 85.33208 | 41759 ft | 315 kts | 228° |
| 2026-05-05 12:32 | 26.67438 | 85.29843 | 41787 ft | 315 kts | 228° |
| 2026-05-05 12:33 | 26.64250 | 85.26474 | 41739 ft | 316 kts | 228° |
| 2026-05-05 12:33 | 26.61060 | 85.23110 | 41766 ft | 315 kts | 228° |
| 2026-05-05 12:34 | 26.57873 | 85.19758 | 41749 ft | 315 kts | 228° |
| 2026-05-05 12:34 | 26.54679 | 85.16405 | 41743 ft | 315 kts | 228° |
| 2026-05-05 12:35 | 26.51489 | 85.13066 | 41751 ft | 314 kts | 228° |
| 2026-05-05 12:35 | 26.48294 | 85.09727 | 41711 ft | 315 kts | 228° |
| 2026-05-05 12:36 | 26.45086 | 85.06382 | 41637 ft | 316 kts | 228° |
| 2026-05-05 12:36 | 26.41866 | 85.03029 | 41638 ft | 316 kts | 228° |
| 2026-05-05 12:37 | 26.38660 | 84.99698 | 41595 ft | 318 kts | 228° |
| 2026-05-05 12:37 | 26.35428 | 84.96346 | 41624 ft | 317 kts | 228° |
| 2026-05-05 12:38 | 26.32200 | 84.93008 | 41617 ft | 317 kts | 228° |
| 2026-05-05 12:38 | 26.28960 | 84.89663 | 41606 ft | 317 kts | 228° |
| 2026-05-05 12:39 | 26.25721 | 84.86329 | 41625 ft | 317 kts | 228° |
| 2026-05-05 12:39 | 26.22476 | 84.82995 | 41602 ft | 317 kts | 228° |
| 2026-05-05 12:40 | 26.19230 | 84.79667 | 41619 ft | 317 kts | 228° |
| 2026-05-05 12:40 | 26.15984 | 84.76348 | 41584 ft | 317 kts | 227° |
| 2026-05-05 12:41 | 26.12726 | 84.73021 | 41547 ft | 318 kts | 227° |
| 2026-05-05 12:41 | 26.09467 | 84.69703 | 41592 ft | 317 kts | 227° |
| 2026-05-05 12:42 | 26.06209 | 84.66394 | 41575 ft | 318 kts | 228° |
| 2026-05-05 12:42 | 26.02949 | 84.63084 | 41378 ft | 325 kts | 228° |
| 2026-05-05 12:43 | 26.01282 | 84.61221 | 40636 ft | 343 kts | 240° |
| 2026-05-05 12:43 | 26.00346 | 84.58766 | 39936 ft | 354 kts | 263° |
| 2026-05-05 12:43 | 26.00505 | 84.56063 | 39269 ft | 363 kts | 285° |
| 2026-05-05 12:43 | 26.01770 | 84.53591 | 38613 ft | 380 kts | 308° |
| 2026-05-05 12:44 | 26.03973 | 84.51840 | 37869 ft | 404 kts | 330° |
| 2026-05-05 12:44 | 26.06776 | 84.51120 | 37114 ft | 427 kts | 349° |
| 2026-05-05 12:44 | 26.09758 | 84.51184 | 36835 ft | 428 kts | 358° |
| 2026-05-05 12:44 | 26.12698 | 84.51580 | 36665 ft | 422 kts | 1° |
| 2026-05-05 12:45 | 26.15578 | 84.52103 | 36384 ft | 418 kts | 2° |
| 2026-05-05 12:45 | 26.18470 | 84.52694 | 35863 ft | 428 kts | 5° |
| 2026-05-05 12:45 | 26.21360 | 84.53816 | 35800 ft | 453 kts | 23° |
| 2026-05-05 12:45 | 26.23979 | 84.55875 | 35840 ft | 469 kts | 36° |
| 2026-05-05 12:46 | 26.29018 | 84.60699 | 35836 ft | 486 kts | 37° |
| 2026-05-05 12:46 | 26.34175 | 84.65759 | 35829 ft | 501 kts | 37° |
| 2026-05-05 12:47 | 26.39478 | 84.70954 | 35844 ft | 514 kts | 37° |
| 2026-05-05 12:47 | 26.44925 | 84.76266 | 35844 ft | 525 kts | 37° |
| 2026-05-05 12:48 | 26.50818 | 84.81045 | 35840 ft | 523 kts | 28° |
| 2026-05-05 12:48 | 26.56912 | 84.85476 | 35859 ft | 523 kts | 28° |
| 2026-05-05 12:49 | 26.63007 | 84.89921 | 35860 ft | 523 kts | 28° |
| 2026-05-05 12:49 | 26.69098 | 84.94380 | 35872 ft | 523 kts | 28° |
| 2026-05-05 12:50 | 26.74157 | 84.98088 | 35875 ft | 523 kts | 28° |
| 2026-05-05 12:50 | 26.81238 | 85.03282 | 35903 ft | 524 kts | 28° |
| 2026-05-05 12:51 | 26.86346 | 85.07025 | 35890 ft | 524 kts | 28° |
| 2026-05-05 12:51 | 26.92444 | 85.11503 | 35906 ft | 524 kts | 28° |
| 2026-05-05 12:52 | 26.98538 | 85.15981 | 35912 ft | 524 kts | 28° |
| 2026-05-05 12:52 | 27.04632 | 85.20468 | 35932 ft | 524 kts | 29° |
| 2026-05-05 12:53 | 27.10606 | 85.24883 | 35888 ft | 500 kts | 28° |
| 2026-05-05 12:53 | 27.13447 | 85.26991 | 35533 ft | 493 kts | 28° |
| 2026-05-05 12:53 | 27.16295 | 85.29101 | 35043 ft | 490 kts | 28° |
| 2026-05-05 12:54 | 27.22021 | 85.33328 | 33841 ft | 488 kts | 28° |
| 2026-05-05 12:54 | 27.24830 | 85.35405 | 33458 ft | 480 kts | 28° |
| 2026-05-05 12:54 | 27.27575 | 85.37437 | 32927 ft | 476 kts | 29° |
| 2026-05-05 12:55 | 27.30363 | 85.39503 | 32165 ft | 474 kts | 29° |
| 2026-05-05 12:55 | 27.33122 | 85.41543 | 30310 ft | 489 kts | 30° |
| 2026-05-05 12:55 | 27.36056 | 85.43708 | 28019 ft | 506 kts | 31° |
| 2026-05-05 12:55 | 27.38986 | 85.45877 | 25946 ft | 515 kts | 31° |
| 2026-05-05 12:56 | 27.41998 | 85.48115 | 24165 ft | 521 kts | 31° |
| 2026-05-05 12:56 | 27.44983 | 85.50345 | 22923 ft | 509 kts | 31° |
| 2026-05-05 12:56 | 27.47889 | 85.52520 | 21667 ft | 495 kts | 31° |
| 2026-05-05 12:56 | 27.50726 | 85.54640 | 20483 ft | 482 kts | 31° |
| 2026-05-05 12:57 | 27.53522 | 85.56587 | 19891 ft | 456 kts | 21° |
| 2026-05-05 12:57 | 27.56436 | 85.57509 | 19544 ft | 422 kts | 1° |
| 2026-05-05 12:57 | 27.59229 | 85.57129 | 19290 ft | 394 kts | 336° |
| 2026-05-05 12:57 | 27.61572 | 85.55669 | 18726 ft | 384 kts | 317° |
| 2026-05-05 12:58 | 27.63246 | 85.53326 | 17716 ft | 389 kts | 296° |
| 2026-05-05 12:58 | 27.64167 | 85.50435 | 16651 ft | 397 kts | 285° |
| 2026-05-05 12:58 | 27.64994 | 85.47432 | 15607 ft | 405 kts | 289° |
| 2026-05-05 12:58 | 27.66300 | 85.44607 | 15033 ft | 403 kts | 303° |
| 2026-05-05 12:59 | 27.68025 | 85.42254 | 14929 ft | 376 kts | 313° |
| 2026-05-05 12:59 | 27.69916 | 85.40364 | 14844 ft | 350 kts | 318° |
| 2026-05-05 12:59 | 27.71712 | 85.38645 | 14708 ft | 328 kts | 317° |
| 2026-05-05 13:00 | 27.73896 | 85.34492 | 13837 ft | 306 kts | 277° |
| 2026-05-05 13:00 | 27.73850 | 85.32130 | 13363 ft | 298 kts | 257° |
| 2026-05-05 13:01 | 27.70071 | 85.27176 | 11846 ft | 288 kts | 199° |
| 2026-05-05 13:01 | 27.68102 | 85.26804 | 11265 ft | 289 kts | 179° |
| 2026-05-05 13:01 | 27.66124 | 85.27210 | 10699 ft | 290 kts | 159° |
| 2026-05-05 13:01 | 27.64387 | 85.28348 | 10152 ft | 289 kts | 139° |
| 2026-05-05 13:02 | 27.63044 | 85.29965 | 9643 ft | 284 kts | 124° |
| 2026-05-05 13:02 | 27.62108 | 85.31896 | 9127 ft | 278 kts | 109° |
| 2026-05-05 13:02 | 27.61653 | 85.33985 | 8639 ft | 272 kts | 94° |
| 2026-05-05 13:02 | 27.61689 | 85.36065 | 8361 ft | 262 kts | 80° |
| 2026-05-05 13:03 | 27.62143 | 85.38024 | 8105 ft | 255 kts | 66° |
| 2026-05-05 13:03 | 27.62967 | 85.39761 | 7880 ft | 249 kts | 53° |
| 2026-05-05 13:03 | 27.64079 | 85.41229 | 7639 ft | 244 kts | 46° |
| 2026-05-05 13:03 | 27.65229 | 85.42623 | 7399 ft | 240 kts | 45° |
| 2026-05-05 13:04 | 27.66334 | 85.43964 | 7162 ft | 227 kts | 46° |
| 2026-05-05 13:04 | 27.67376 | 85.45229 | 6957 ft | 212 kts | 46° |
| 2026-05-05 13:04 | 27.68407 | 85.46340 | 6723 ft | 194 kts | 36° |
| 2026-05-05 13:04 | 27.69529 | 85.46982 | 6497 ft | 171 kts | 18° |
| 2026-05-05 13:05 | 27.70638 | 85.47217 | 6155 ft | 155 kts | 2° |
| 2026-05-05 13:05 | 27.71680 | 85.47124 | 5900 ft | 147 kts | 348° |
| 2026-05-05 13:05 | 27.72629 | 85.46755 | 5752 ft | 142 kts | 333° |
| 2026-05-05 13:05 | 27.73462 | 85.46149 | 5758 ft | 143 kts | 320° |
| 2026-05-05 13:06 | 27.74143 | 85.45339 | 5760 ft | 143 kts | 306° |
| 2026-05-05 13:06 | 27.74636 | 85.44370 | 5765 ft | 143 kts | 292° |
| 2026-05-05 13:06 | 27.74909 | 85.43298 | 5761 ft | 142 kts | 278° |